sensor_id;sensor_type;location;lat;lon;timestamp;pressure;altitude;pressure_sealevel;temperature;humidity
76464;BME280;65301;46.666;20.110;2024-02-04T00:01:18;101276.38;;;8.04;92.23
76464;BME280;65301;46.666;20.110;2024-02-04T00:04:20;101276.66;;;7.97;91.89
76464;BME280;65301;46.666;20.110;2024-02-04T00:07:22;101270.59;;;7.97;92.26
76464;BME280;65301;46.666;20.110;2024-02-04T00:10:24;101274.59;;;7.84;93.47
76464;BME280;65301;46.666;20.110;2024-02-04T00:13:28;101271.16;;;7.84;93.47
76464;BME280;65301;46.666;20.110;2024-02-04T00:16:30;101268.28;;;7.85;93.10
76464;BME280;65301;46.666;20.110;2024-02-04T00:19:31;101262.75;;;7.82;93.52
76464;BME280;65301;46.666;20.110;2024-02-04T00:22:33;101275.94;;;7.72;93.18
76464;BME280;65301;46.666;20.110;2024-02-04T00:25:35;101278.84;;;7.65;94.58
76464;BME280;65301;46.666;20.110;2024-02-04T00:28:39;101276.00;;;7.62;93.95
76464;BME280;65301;46.666;20.110;2024-02-04T00:31:44;101273.31;;;7.72;93.45
76464;BME280;65301;46.666;20.110;2024-02-04T00:34:46;101274.38;;;7.76;93.69
76464;BME280;65301;46.666;20.110;2024-02-04T00:37:48;101274.09;;;7.72;93.81
76464;BME280;65301;46.666;20.110;2024-02-04T00:40:50;101271.25;;;7.64;94.56
76464;BME280;65301;46.666;20.110;2024-02-04T00:43:53;101273.31;;;7.67;94.05
76464;BME280;65301;46.666;20.110;2024-02-04T00:46:55;101265.19;;;7.63;94.20
76464;BME280;65301;46.666;20.110;2024-02-04T00:49:57;101273.88;;;7.69;94.28
76464;BME280;65301;46.666;20.110;2024-02-04T00:52:59;101270.69;;;7.67;93.89
76464;BME280;65301;46.666;20.110;2024-02-04T00:56:04;101267.81;;;7.63;93.56
76464;BME280;65301;46.666;20.110;2024-02-04T00:59:06;101261.53;;;7.59;94.24
76464;BME280;65301;46.666;20.110;2024-02-04T01:02:08;101274.19;;;7.42;94.75
76464;BME280;65301;46.666;20.110;2024-02-04T01:05:10;101272.31;;;7.43;94.95
76464;BME280;65301;46.666;20.110;2024-02-04T01:08:12;101264.47;;;7.37;94.86
76464;BME280;65301;46.666;20.110;2024-02-04T01:11:14;101277.06;;;7.40;95.00
76464;BME280;65301;46.666;20.110;2024-02-04T01:14:15;101274.19;;;7.42;95.19
76464;BME280;65301;46.666;20.110;2024-02-04T01:17:17;101278.13;;;7.24;96.20
76464;BME280;65301;46.666;20.110;2024-02-04T01:20:19;101276.31;;;7.25;95.27
76464;BME280;65301;46.666;20.110;2024-02-04T01:23:21;101284.72;;;7.22;96.03
76464;BME280;65301;46.666;20.110;2024-02-04T01:26:22;101275.78;;;7.13;96.78
76464;BME280;65301;46.666;20.110;2024-02-04T01:29:25;101269.22;;;7.10;96.77
76464;BME280;65301;46.666;20.110;2024-02-04T01:32:27;101276.06;;;7.01;97.44
76464;BME280;65301;46.666;20.110;2024-02-04T01:35:29;101269.72;;;6.92;98.10
76464;BME280;65301;46.666;20.110;2024-02-04T01:38:31;101263.16;;;7.00;97.45
76464;BME280;65301;46.666;20.110;2024-02-04T01:41:33;101258.72;;;7.00;97.76
76464;BME280;65301;46.666;20.110;2024-02-04T01:44:35;101260.81;;;6.98;97.67
76464;BME280;65301;46.666;20.110;2024-02-04T01:47:37;101265.78;;;6.95;97.88
76464;BME280;65301;46.666;20.110;2024-02-04T01:50:39;101252.41;;;6.96;97.89
76464;BME280;65301;46.666;20.110;2024-02-04T01:53:42;101240.84;;;6.97;97.41
76464;BME280;65301;46.666;20.110;2024-02-04T01:56:46;101247.94;;;6.97;97.10
76464;BME280;65301;46.666;20.110;2024-02-04T01:59:52;101236.38;;;6.93;97.64
76464;BME280;65301;46.666;20.110;2024-02-04T02:02:56;101237.97;;;6.99;96.60
76464;BME280;65301;46.666;20.110;2024-02-04T02:05:59;101243.22;;;7.04;97.45
76464;BME280;65301;46.666;20.110;2024-02-04T02:09:02;101231.41;;;6.96;97.88
76464;BME280;65301;46.666;20.110;2024-02-04T02:12:11;101235.31;;;7.09;97.07
76464;BME280;65301;46.666;20.110;2024-02-04T02:15:17;101240.06;;;7.12;97.28
76464;BME280;65301;46.666;20.110;2024-02-04T02:18:49;101239.28;;;7.06;96.96
76464;BME280;65301;46.666;20.110;2024-02-04T02:22:02;101239.53;;;7.10;96.70
76464;BME280;65301;46.666;20.110;2024-02-04T02:25:07;101223.78;;;7.00;96.16
76464;BME280;65301;46.666;20.110;2024-02-04T02:28:09;101219.06;;;6.87;97.24
76464;BME280;65301;46.666;20.110;2024-02-04T02:31:12;101217.47;;;6.76;97.65
76464;BME280;65301;46.666;20.110;2024-02-04T02:34:14;101207.25;;;6.69;97.99
76464;BME280;65301;46.666;20.110;2024-02-04T02:37:43;101202.50;;;6.61;98.70
76464;BME280;65301;46.666;20.110;2024-02-04T02:40:51;101202.25;;;6.47;100.00
76464;BME280;65301;46.666;20.110;2024-02-04T02:43:56;101208.53;;;6.41;100.00
76464;BME280;65301;46.666;20.110;2024-02-04T02:46:59;101208.28;;;6.43;100.00
76464;BME280;65301;46.666;20.110;2024-02-04T02:50:02;101212.47;;;6.49;100.00
76464;BME280;65301;46.666;20.110;2024-02-04T02:53:05;101213.03;;;6.66;100.00
76464;BME280;65301;46.666;20.110;2024-02-04T02:56:07;101220.88;;;6.61;100.00
76464;BME280;65301;46.666;20.110;2024-02-04T02:59:09;101221.97;;;6.65;100.00
76464;BME280;65301;46.666;20.110;2024-02-04T03:02:10;101215.94;;;6.75;100.00
76464;BME280;65301;46.666;20.110;2024-02-04T03:05:18;101209.38;;;6.77;100.00
76464;BME280;65301;46.666;20.110;2024-02-04T03:08:20;101198.84;;;6.87;100.00
76464;BME280;65301;46.666;20.110;2024-02-04T03:11:22;101188.84;;;6.99;99.75
76464;BME280;65301;46.666;20.110;2024-02-04T03:14:24;101187.00;;;7.10;99.13
76464;BME280;65301;46.666;20.110;2024-02-04T03:17:25;101198.81;;;7.12;99.36
76464;BME280;65301;46.666;20.110;2024-02-04T03:20:27;101197.50;;;7.10;98.81
76464;BME280;65301;46.666;20.110;2024-02-04T03:23:29;101209.09;;;7.04;99.91
76464;BME280;65301;46.666;20.110;2024-02-04T03:26:31;101204.34;;;7.11;99.38
76464;BME280;65301;46.666;20.110;2024-02-04T03:29:32;101208.81;;;7.15;98.84
76464;BME280;65301;46.666;20.110;2024-02-04T03:32:35;101220.09;;;7.11;99.44
76464;BME280;65301;46.666;20.110;2024-02-04T03:35:37;101217.47;;;7.16;98.88
76464;BME280;65301;46.666;20.110;2024-02-04T03:38:39;101200.66;;;7.12;98.87
76464;BME280;65301;46.666;20.110;2024-02-04T03:41:40;101202.75;;;7.10;99.25
76464;BME280;65301;46.666;20.110;2024-02-04T03:44:42;101214.88;;;7.06;99.79
76464;BME280;65301;46.666;20.110;2024-02-04T03:47:44;101219.03;;;7.07;100.00
76464;BME280;65301;46.666;20.110;2024-02-04T03:50:47;101225.38;;;7.11;99.78
76464;BME280;65301;46.666;20.110;2024-02-04T03:53:49;101231.66;;;7.10;100.00
76464;BME280;65301;46.666;20.110;2024-02-04T03:56:52;101226.41;;;7.10;100.00
76464;BME280;65301;46.666;20.110;2024-02-04T03:59:53;101225.09;;;7.12;100.00
76464;BME280;65301;46.666;20.110;2024-02-04T04:02:55;101230.63;;;7.11;100.00
76464;BME280;65301;46.666;20.110;2024-02-04T04:05:57;101224.06;;;7.13;100.00
76464;BME280;65301;46.666;20.110;2024-02-04T04:08:59;101215.59;;;7.21;100.00
76464;BME280;65301;46.666;20.110;2024-02-04T04:12:01;101216.94;;;7.19;100.00
76464;BME280;65301;46.666;20.110;2024-02-04T04:15:03;101229.25;;;7.18;100.00
76464;BME280;65301;46.666;20.110;2024-02-04T04:18:05;101237.16;;;7.18;100.00
76464;BME280;65301;46.666;20.110;2024-02-04T04:21:07;101237.19;;;7.08;100.00
76464;BME280;65301;46.666;20.110;2024-02-04T04:24:09;101244.50;;;7.16;100.00
76464;BME280;65301;46.666;20.110;2024-02-04T04:27:11;101246.63;;;7.14;100.00
76464;BME280;65301;46.666;20.110;2024-02-04T04:30:13;101253.19;;;7.17;100.00
76464;BME280;65301;46.666;20.110;2024-02-04T04:33:18;101257.13;;;7.24;100.00
76464;BME280;65301;46.666;20.110;2024-02-04T04:36:20;101247.41;;;7.35;100.00
76464;BME280;65301;46.666;20.110;2024-02-04T04:39:21;101231.88;;;7.38;100.00
76464;BME280;65301;46.666;20.110;2024-02-04T04:42:23;101247.13;;;7.42;100.00
76464;BME280;65301;46.666;20.110;2024-02-04T04:45:25;101247.34;;;7.45;100.00
76464;BME280;65301;46.666;20.110;2024-02-04T04:48:27;101236.81;;;7.55;100.00
76464;BME280;65301;46.666;20.110;2024-02-04T04:51:29;101249.44;;;7.53;100.00
76464;BME280;65301;46.666;20.110;2024-02-04T04:54:31;101247.63;;;7.49;100.00
76464;BME280;65301;46.666;20.110;2024-02-04T04:57:32;101245.53;;;7.40;100.00
76464;BME280;65301;46.666;20.110;2024-02-04T05:00:34;101250.47;;;7.52;100.00
76464;BME280;65301;46.666;20.110;2024-02-04T05:03:36;101254.41;;;7.55;100.00
76464;BME280;65301;46.666;20.110;2024-02-04T05:06:38;101251.78;;;7.55;100.00
76464;BME280;65301;46.666;20.110;2024-02-04T05:09:40;101253.38;;;7.61;100.00
76464;BME280;65301;46.666;20.110;2024-02-04T05:12:42;101251.75;;;7.70;100.00
76464;BME280;65301;46.666;20.110;2024-02-04T05:15:44;101245.69;;;7.79;100.00
76464;BME280;65301;46.666;20.110;2024-02-04T05:18:46;101243.03;;;7.84;100.00
76464;BME280;65301;46.666;20.110;2024-02-04T05:21:47;101241.97;;;7.90;100.00
76464;BME280;65301;46.666;20.110;2024-02-04T05:24:49;101249.31;;;7.93;100.00
76464;BME280;65301;46.666;20.110;2024-02-04T05:27:51;101242.72;;;7.96;100.00
76464;BME280;65301;46.666;20.110;2024-02-04T05:30:53;101240.91;;;7.86;100.00
76464;BME280;65301;46.666;20.110;2024-02-04T05:33:56;101238.38;;;7.66;100.00
76464;BME280;65301;46.666;20.110;2024-02-04T05:36:58;101234.69;;;7.62;100.00
76464;BME280;65301;46.666;20.110;2024-02-04T05:40:00;101240.53;;;7.54;100.00
76464;BME280;65301;46.666;20.110;2024-02-04T05:43:02;101237.34;;;7.52;100.00
76464;BME280;65301;46.666;20.110;2024-02-04T05:46:13;101243.69;;;7.46;100.00
76464;BME280;65301;46.666;20.110;2024-02-04T05:49:16;101246.59;;;7.29;100.00
76464;BME280;65301;46.666;20.110;2024-02-04T05:52:18;101233.19;;;7.26;100.00
76464;BME280;65301;46.666;20.110;2024-02-04T05:55:20;101220.88;;;7.21;100.00
76464;BME280;65301;46.666;20.110;2024-02-04T05:58:22;101221.66;;;7.12;100.00
76464;BME280;65301;46.666;20.110;2024-02-04T06:01:24;101229.81;;;7.05;100.00
76464;BME280;65301;46.666;20.110;2024-02-04T06:04:26;101231.41;;;7.06;100.00
76464;BME280;65301;46.666;20.110;2024-02-04T06:07:28;101237.69;;;7.00;100.00
76464;BME280;65301;46.666;20.110;2024-02-04T06:10:29;101249.78;;;6.91;100.00
76464;BME280;65301;46.666;20.110;2024-02-04T06:13:31;101240.09;;;6.92;100.00
76464;BME280;65301;46.666;20.110;2024-02-04T06:16:33;101242.69;;;6.97;100.00
76464;BME280;65301;46.666;20.110;2024-02-04T06:19:36;101247.94;;;6.97;100.00
76464;BME280;65301;46.666;20.110;2024-02-04T06:22:38;101250.31;;;6.93;100.00
76464;BME280;65301;46.666;20.110;2024-02-04T06:25:39;101262.41;;;6.84;100.00
76464;BME280;65301;46.666;20.110;2024-02-04T06:28:41;101278.91;;;6.90;100.00
76464;BME280;65301;46.666;20.110;2024-02-04T06:31:48;101286.56;;;6.86;100.00
76464;BME280;65301;46.666;20.110;2024-02-04T06:34:51;101283.13;;;6.91;100.00
76464;BME280;65301;46.666;20.110;2024-02-04T06:37:53;101285.25;;;6.89;100.00
76464;BME280;65301;46.666;20.110;2024-02-04T06:40:55;101279.72;;;6.85;100.00
76464;BME280;65301;46.666;20.110;2024-02-04T06:43:57;101287.84;;;6.84;100.00
76464;BME280;65301;46.666;20.110;2024-02-04T06:46:59;101282.88;;;6.82;100.00
76464;BME280;65301;46.666;20.110;2024-02-04T06:50:01;101284.16;;;6.85;100.00
76464;BME280;65301;46.666;20.110;2024-02-04T06:53:06;101293.91;;;6.84;100.00
76464;BME280;65301;46.666;20.110;2024-02-04T06:56:08;101306.50;;;7.02;100.00
76464;BME280;65301;46.666;20.110;2024-02-04T06:59:10;101312.81;;;7.16;100.00
76464;BME280;65301;46.666;20.110;2024-02-04T07:02:12;101303.63;;;7.29;100.00
76464;BME280;65301;46.666;20.110;2024-02-04T07:05:13;101293.91;;;7.39;100.00
76464;BME280;65301;46.666;20.110;2024-02-04T07:08:17;101293.38;;;7.37;100.00
76464;BME280;65301;46.666;20.110;2024-02-04T07:11:19;101297.84;;;7.37;100.00
76464;BME280;65301;46.666;20.110;2024-02-04T07:14:21;101285.75;;;7.31;100.00
76464;BME280;65301;46.666;20.110;2024-02-04T07:17:23;101289.16;;;7.26;100.00
76464;BME280;65301;46.666;20.110;2024-02-04T07:20:24;101290.75;;;7.32;100.00
76464;BME280;65301;46.666;20.110;2024-02-04T07:23:26;101292.03;;;7.50;100.00
76464;BME280;65301;46.666;20.110;2024-02-04T07:26:28;101304.09;;;7.71;100.00
76464;BME280;65301;46.666;20.110;2024-02-04T07:29:30;101301.38;;;7.96;100.00
76464;BME280;65301;46.666;20.110;2024-02-04T07:32:32;101303.09;;;8.36;100.00
76464;BME280;65301;46.666;20.110;2024-02-04T07:35:36;101306.03;;;8.73;100.00
76464;BME280;65301;46.666;20.110;2024-02-04T07:38:38;101297.09;;;9.08;99.38
76464;BME280;65301;46.666;20.110;2024-02-04T07:41:39;101305.38;;;9.25;98.41
76464;BME280;65301;46.666;20.110;2024-02-04T07:44:41;101298.13;;;9.65;95.99
76464;BME280;65301;46.666;20.110;2024-02-04T07:47:43;101291.50;;;9.91;94.29
76464;BME280;65301;46.666;20.110;2024-02-04T07:50:46;101296.63;;;10.06;93.78
76464;BME280;65301;46.666;20.110;2024-02-04T07:53:48;101298.75;;;10.28;93.13
76464;BME280;65301;46.666;20.110;2024-02-04T07:56:49;101293.03;;;10.39;91.53
76464;BME280;65301;46.666;20.110;2024-02-04T07:59:51;101298.91;;;10.55;91.04
76464;BME280;65301;46.666;20.110;2024-02-04T08:02:55;101299.88;;;10.78;90.09
76464;BME280;65301;46.666;20.110;2024-02-04T08:05:56;101292.06;;;11.05;87.81
76464;BME280;65301;46.666;20.110;2024-02-04T08:08:58;101301.41;;;11.16;87.27
76464;BME280;65301;46.666;20.110;2024-02-04T08:12:00;101303.41;;;11.83;84.40
76464;BME280;65301;46.666;20.110;2024-02-04T08:15:02;101301.59;;;12.33;81.91
76464;BME280;65301;46.666;20.110;2024-02-04T08:18:04;101294.16;;;13.15;76.64
76464;BME280;65301;46.666;20.110;2024-02-04T08:21:09;101292.78;;;13.96;73.41
76464;BME280;65301;46.666;20.110;2024-02-04T08:24:11;101293.66;;;14.91;68.53
76464;BME280;65301;46.666;20.110;2024-02-04T08:27:12;101290.84;;;14.79;68.77
76464;BME280;65301;46.666;20.110;2024-02-04T08:30:17;101294.50;;;15.29;65.46
76464;BME280;65301;46.666;20.110;2024-02-04T08:33:20;101296.34;;;14.65;67.38
76464;BME280;65301;46.666;20.110;2024-02-04T08:36:23;101300.47;;;14.07;68.92
76464;BME280;65301;46.666;20.110;2024-02-04T08:39:25;101292.47;;;13.98;70.81
76464;BME280;65301;46.666;20.110;2024-02-04T08:42:27;101311.44;;;13.35;73.60
76464;BME280;65301;46.666;20.110;2024-02-04T08:45:29;101303.59;;;13.30;74.13
76464;BME280;65301;46.666;20.110;2024-02-04T08:48:31;101286.69;;;13.26;73.49
76464;BME280;65301;46.666;20.110;2024-02-04T08:51:33;101294.84;;;12.63;76.33
76464;BME280;65301;46.666;20.110;2024-02-04T08:54:35;101302.84;;;12.71;76.23
76464;BME280;65301;46.666;20.110;2024-02-04T08:57:36;101308.94;;;12.72;76.51
76464;BME280;65301;46.666;20.110;2024-02-04T09:00:38;101315.06;;;12.59;77.92
76464;BME280;65301;46.666;20.110;2024-02-04T09:03:40;101317.66;;;12.37;78.30
76464;BME280;65301;46.666;20.110;2024-02-04T09:06:42;101314.94;;;12.28;78.94
76464;BME280;65301;46.666;20.110;2024-02-04T09:09:44;101319.34;;;12.33;78.89
76464;BME280;65301;46.666;20.110;2024-02-04T09:12:46;101328.66;;;12.30;78.22
76464;BME280;65301;46.666;20.110;2024-02-04T09:15:49;101325.31;;;12.38;77.07
76464;BME280;65301;46.666;20.110;2024-02-04T09:18:51;101325.13;;;12.48;76.62
76464;BME280;65301;46.666;20.110;2024-02-04T09:21:54;101326.56;;;12.54;75.39
76464;BME280;65301;46.666;20.110;2024-02-04T09:24:55;101328.19;;;12.64;74.45
76464;BME280;65301;46.666;20.110;2024-02-04T09:27:57;101327.25;;;12.60;74.55
76464;BME280;65301;46.666;20.110;2024-02-04T09:30:59;101317.81;;;12.67;74.22
76464;BME280;65301;46.666;20.110;2024-02-04T09:34:02;101318.94;;;13.11;72.59
76464;BME280;65301;46.666;20.110;2024-02-04T09:37:04;101324.38;;;13.36;71.42
76464;BME280;65301;46.666;20.110;2024-02-04T09:40:06;101314.00;;;13.49;71.60
76464;BME280;65301;46.666;20.110;2024-02-04T09:43:10;101309.34;;;13.54;70.32
76464;BME280;65301;46.666;20.110;2024-02-04T09:46:12;101305.41;;;13.91;67.89
76464;BME280;65301;46.666;20.110;2024-02-04T09:49:15;101293.28;;;14.16;67.47
76464;BME280;65301;46.666;20.110;2024-02-04T09:52:18;101288.97;;;14.88;64.39
76464;BME280;65301;46.666;20.110;2024-02-04T09:55:22;101292.81;;;15.25;63.40
76464;BME280;65301;46.666;20.110;2024-02-04T09:58:24;101281.19;;;16.34;59.25
76464;BME280;65301;46.666;20.110;2024-02-04T10:01:26;101272.75;;;17.30;56.47
76464;BME280;65301;46.666;20.110;2024-02-04T10:04:29;101257.44;;;16.95;56.69
76464;BME280;65301;46.666;20.110;2024-02-04T10:07:31;101260.44;;;17.74;53.88
76464;BME280;65301;46.666;20.110;2024-02-04T10:10:35;101268.81;;;18.37;51.36
76464;BME280;65301;46.666;20.110;2024-02-04T10:13:43;101250.72;;;19.17;49.00
76464;BME280;65301;46.666;20.110;2024-02-04T10:16:45;101244.72;;;18.77;48.92
76464;BME280;65301;46.666;20.110;2024-02-04T10:19:47;101235.81;;;18.05;50.44
76464;BME280;65301;46.666;20.110;2024-02-04T10:22:50;101222.56;;;17.12;52.46
76464;BME280;65301;46.666;20.110;2024-02-04T10:25:59;101219.59;;;17.50;52.41
76464;BME280;65301;46.666;20.110;2024-02-04T10:29:06;101207.50;;;17.52;51.55
76464;BME280;65301;46.666;20.110;2024-02-04T10:32:07;101205.22;;;17.78;51.75
76464;BME280;65301;46.666;20.110;2024-02-04T10:35:12;101207.78;;;18.27;48.87
76464;BME280;65301;46.666;20.110;2024-02-04T10:38:14;101220.81;;;17.76;50.45
76464;BME280;65301;46.666;20.110;2024-02-04T10:41:19;101218.06;;;18.80;47.60
76464;BME280;65301;46.666;20.110;2024-02-04T10:44:23;101214.00;;;19.33;46.58
76464;BME280;65301;46.666;20.110;2024-02-04T10:47:32;101219.09;;;19.69;45.36
76464;BME280;65301;46.666;20.110;2024-02-04T10:50:37;101218.47;;;19.29;46.84
76464;BME280;65301;46.666;20.110;2024-02-04T10:53:43;101227.94;;;18.64;46.49
76464;BME280;65301;46.666;20.110;2024-02-04T10:56:46;101227.38;;;17.18;51.07
76464;BME280;65301;46.666;20.110;2024-02-04T10:59:55;101220.91;;;17.80;49.08
76464;BME280;65301;46.666;20.110;2024-02-04T11:02:57;101220.03;;;17.88;49.07
76464;BME280;65301;46.666;20.110;2024-02-04T11:06:01;101208.38;;;17.56;49.69
76464;BME280;65301;46.666;20.110;2024-02-04T11:09:04;101214.25;;;17.38;49.61
76464;BME280;65301;46.666;20.110;2024-02-04T11:12:11;101212.91;;;17.68;49.21
76464;BME280;65301;46.666;20.110;2024-02-04T11:15:17;101210.66;;;17.94;48.46
76464;BME280;65301;46.666;20.110;2024-02-04T11:28:12;101230.13;;;18.07;47.87
76464;BME280;65301;46.666;20.110;2024-02-04T11:31:17;101225.88;;;18.45;47.28
76464;BME280;65301;46.666;20.110;2024-02-04T11:34:19;101210.44;;;19.29;44.84
76464;BME280;65301;46.666;20.110;2024-02-04T11:37:21;101222.63;;;19.73;43.51
76464;BME280;65301;46.666;20.110;2024-02-04T11:40:30;101221.63;;;20.35;41.87
76464;BME280;65301;46.666;20.110;2024-02-04T11:43:33;101221.47;;;20.67;41.41
76464;BME280;65301;46.666;20.110;2024-02-04T11:46:36;101231.53;;;20.92;40.60
76464;BME280;65301;46.666;20.110;2024-02-04T11:49:38;101224.66;;;19.45;42.51
76464;BME280;65301;46.666;20.110;2024-02-04T11:52:44;101231.47;;;18.40;45.65
76464;BME280;65301;46.666;20.110;2024-02-04T11:55:46;101211.41;;;19.05;44.16
76464;BME280;65301;46.666;20.110;2024-02-04T11:58:48;101213.44;;;21.12;40.47
76464;BME280;65301;46.666;20.110;2024-02-04T12:01:54;101225.88;;;21.99;38.09
76464;BME280;65301;46.666;20.110;2024-02-04T12:04:58;101216.69;;;21.21;39.14
76464;BME280;65301;46.666;20.110;2024-02-04T12:08:03;101209.47;;;21.51;38.13
76464;BME280;65301;46.666;20.110;2024-02-04T12:11:06;101208.00;;;20.06;39.97
76464;BME280;65301;46.666;20.110;2024-02-04T12:14:08;101205.53;;;19.47;41.15
76464;BME280;65301;46.666;20.110;2024-02-04T12:17:11;101205.75;;;19.73;41.26
76464;BME280;65301;46.666;20.110;2024-02-04T12:20:13;101203.22;;;19.14;42.47
76464;BME280;65301;46.666;20.110;2024-02-04T12:23:17;101195.03;;;18.48;43.52
76464;BME280;65301;46.666;20.110;2024-02-04T12:26:23;101185.81;;;16.73;46.97
76464;BME280;65301;46.666;20.110;2024-02-04T12:29:25;101183.06;;;16.28;47.94
76464;BME280;65301;46.666;20.110;2024-02-04T12:32:26;101168.28;;;17.44;45.66
76464;BME280;65301;46.666;20.110;2024-02-04T12:35:30;101155.63;;;19.23;41.62
76464;BME280;65301;46.666;20.110;2024-02-04T12:38:32;101153.72;;;20.73;38.36
76464;BME280;65301;46.666;20.110;2024-02-04T12:41:34;101155.03;;;21.32;37.47
76464;BME280;65301;46.666;20.110;2024-02-04T12:44:36;101150.34;;;20.57;39.19
76464;BME280;65301;46.666;20.110;2024-02-04T12:47:38;101147.41;;;20.85;38.21
76464;BME280;65301;46.666;20.110;2024-02-04T12:50:40;101137.22;;;22.06;36.56
76464;BME280;65301;46.666;20.110;2024-02-04T12:53:42;101148.34;;;21.45;37.06
76464;BME280;65301;46.666;20.110;2024-02-04T12:56:50;101139.22;;;20.55;37.45
76464;BME280;65301;46.666;20.110;2024-02-04T12:59:52;101138.84;;;20.34;38.61
76464;BME280;65301;46.666;20.110;2024-02-04T13:03:07;101137.47;;;20.66;37.84
76464;BME280;65301;46.666;20.110;2024-02-04T13:06:10;101150.50;;;21.36;36.71
76464;BME280;65301;46.666;20.110;2024-02-04T13:09:16;101154.25;;;20.82;36.57
76464;BME280;65301;46.666;20.110;2024-02-04T13:12:18;101166.81;;;20.55;37.19
76464;BME280;65301;46.666;20.110;2024-02-04T13:15:20;101177.78;;;20.47;38.01
76464;BME280;65301;46.666;20.110;2024-02-04T13:18:22;101184.22;;;20.42;38.87
76464;BME280;65301;46.666;20.110;2024-02-04T13:21:24;101177.34;;;19.53;39.65
76464;BME280;65301;46.666;20.110;2024-02-04T13:24:26;101174.28;;;20.24;38.87
76464;BME280;65301;46.666;20.110;2024-02-04T13:27:28;101175.84;;;18.89;40.46
76464;BME280;65301;46.666;20.110;2024-02-04T13:30:30;101177.31;;;17.52;43.23
76464;BME280;65301;46.666;20.110;2024-02-04T13:33:32;101184.84;;;16.03;47.08
76464;BME280;65301;46.666;20.110;2024-02-04T13:36:35;101170.13;;;15.09;50.45
76464;BME280;65301;46.666;20.110;2024-02-04T13:39:37;101174.72;;;15.00;51.71
76464;BME280;65301;46.666;20.110;2024-02-04T13:42:38;101162.91;;;15.18;51.83
76464;BME280;65301;46.666;20.110;2024-02-04T13:45:40;101170.16;;;15.47;51.54
76464;BME280;65301;46.666;20.110;2024-02-04T13:48:42;101172.47;;;15.78;50.96
76464;BME280;65301;46.666;20.110;2024-02-04T13:51:44;101165.28;;;15.49;51.56
76464;BME280;65301;46.666;20.110;2024-02-04T13:54:46;101160.34;;;15.01;53.32
76464;BME280;65301;46.666;20.110;2024-02-04T13:57:48;101160.88;;;14.78;54.51
76464;BME280;65301;46.666;20.110;2024-02-04T14:00:50;101164.06;;;15.00;53.55
76464;BME280;65301;46.666;20.110;2024-02-04T14:03:52;101165.19;;;15.28;52.50
76464;BME280;65301;46.666;20.110;2024-02-04T14:06:54;101155.91;;;15.14;52.50
76464;BME280;65301;46.666;20.110;2024-02-04T14:09:55;101146.34;;;15.13;52.76
76464;BME280;65301;46.666;20.110;2024-02-04T14:12:57;101140.59;;;15.02;52.75
76464;BME280;65301;46.666;20.110;2024-02-04T14:15:59;101154.06;;;14.51;54.23
76464;BME280;65301;46.666;20.110;2024-02-04T14:19:01;101153.88;;;13.96;55.90
76464;BME280;65301;46.666;20.110;2024-02-04T14:22:03;101150.16;;;13.88;57.25
76464;BME280;65301;46.666;20.110;2024-02-04T14:25:06;101152.78;;;13.71;57.64
76464;BME280;65301;46.666;20.110;2024-02-04T14:28:08;101145.63;;;13.80;58.33
76464;BME280;65301;46.666;20.110;2024-02-04T14:31:10;101142.31;;;13.75;58.49
76464;BME280;65301;46.666;20.110;2024-02-04T14:34:12;101133.91;;;13.64;58.80
76464;BME280;65301;46.666;20.110;2024-02-04T14:37:14;101128.72;;;13.68;58.77
76464;BME280;65301;46.666;20.110;2024-02-04T14:40:16;101141.81;;;13.56;58.65
76464;BME280;65301;46.666;20.110;2024-02-04T14:43:18;101135.88;;;13.42;59.80
76464;BME280;65301;46.666;20.110;2024-02-04T14:46:23;101139.78;;;13.44;59.89
76464;BME280;65301;46.666;20.110;2024-02-04T14:49:25;101133.53;;;13.40;60.19
76464;BME280;65301;46.666;20.110;2024-02-04T14:52:29;101131.31;;;13.25;60.63
76464;BME280;65301;46.666;20.110;2024-02-04T14:55:30;101137.53;;;13.20;60.83
76464;BME280;65301;46.666;20.110;2024-02-04T14:58:32;101129.84;;;13.10;61.46
76464;BME280;65301;46.666;20.110;2024-02-04T15:01:34;101133.63;;;13.18;61.51
76464;BME280;65301;46.666;20.110;2024-02-04T15:04:38;101126.28;;;13.15;61.95
76464;BME280;65301;46.666;20.110;2024-02-04T15:07:40;101121.72;;;13.07;62.31
76464;BME280;65301;46.666;20.110;2024-02-04T15:10:43;101116.50;;;13.02;62.16
76464;BME280;65301;46.666;20.110;2024-02-04T15:13:45;101111.19;;;12.93;62.57
76464;BME280;65301;46.666;20.110;2024-02-04T15:16:47;101103.25;;;12.93;62.50
76464;BME280;65301;46.666;20.110;2024-02-04T15:19:49;101107.59;;;12.89;62.51
76464;BME280;65301;46.666;20.110;2024-02-04T15:22:52;101102.88;;;12.78;63.03
76464;BME280;65301;46.666;20.110;2024-02-04T15:25:55;101107.66;;;12.67;63.12
76464;BME280;65301;46.666;20.110;2024-02-04T15:28:59;101103.88;;;12.68;63.28
76464;BME280;65301;46.666;20.110;2024-02-04T15:32:01;101100.28;;;12.64;63.78
76464;BME280;65301;46.666;20.110;2024-02-04T15:35:04;101092.66;;;12.62;64.28
76464;BME280;65301;46.666;20.110;2024-02-04T15:38:07;101093.09;;;12.56;64.35
76464;BME280;65301;46.666;20.110;2024-02-04T15:41:09;101105.75;;;12.37;64.80
76464;BME280;65301;46.666;20.110;2024-02-04T15:44:11;101099.63;;;12.28;65.40
76464;BME280;65301;46.666;20.110;2024-02-04T15:47:16;101094.44;;;12.23;65.90
76464;BME280;65301;46.666;20.110;2024-02-04T15:50:21;101084.75;;;11.96;66.50
76464;BME280;65301;46.666;20.110;2024-02-04T15:53:23;101085.78;;;11.86;67.53
76464;BME280;65301;46.666;20.110;2024-02-04T15:56:27;101068.88;;;11.74;67.42